Time;durP1;ratioP1;P1;durP2;ratioP2;P2;SDS_P1;SDS_P2;PMS_P1;PMS_P2;Temp;Humidity;BMP_temperature;BMP_pressure;BME280_temperature;BME280_humidity;BME280_pressure;Samples;Min_cycle;Max_cycle;Signal;HPM_P1;HPM_P2
2022/10/23 00:00:56;;;;;;;14.93;8.95;;;8.90;99.90;;;;;;4932119;29;20058;-68
2022/10/23 00:03:21;;;;;;;18.48;8.75;;;8.90;99.90;;;;;;4930402;29;20060;-68
2022/10/23 00:05:47;;;;;;;30.90;22.75;;;8.90;99.90;;;;;;4932084;29;20043;-68
2022/10/23 00:08:13;;;;;;;36.42;26.63;;;8.90;99.90;;;;;;4932121;29;20043;-68
2022/10/23 00:10:41;;;;;;;36.65;27.05;;;9.00;99.90;;;;;;4930569;29;20044;-68
2022/10/23 00:13:07;;;;;;;39.20;26.25;;;9.00;99.90;;;;;;4931500;29;20056;-68
2022/10/23 00:15:35;;;;;;;38.35;28.38;;;9.00;99.90;;;;;;4932068;29;20044;-68
2022/10/23 00:18:01;;;;;;;39.63;25.40;;;9.10;99.90;;;;;;4934454;29;20043;-68
2022/10/23 00:20:26;;;;;;;37.70;23.02;;;9.00;99.90;;;;;;4930783;29;20051;-68
2022/10/23 00:22:52;;;;;;;38.70;27.10;;;9.00;99.90;;;;;;4929748;29;20142;-68
2022/10/23 00:25:19;;;;;;;34.22;24.25;;;9.00;99.90;;;;;;4932260;29;20054;-68
2022/10/23 00:27:45;;;;;;;40.67;26.40;;;9.00;99.90;;;;;;4931565;29;20588;-68
2022/10/23 00:30:11;;;;;;;36.30;25.95;;;9.00;99.90;;;;;;4931902;29;20458;-68
2022/10/23 00:32:37;;;;;;;14.90;10.88;;;9.00;99.90;;;;;;4930972;29;20134;-68
2022/10/23 00:35:04;;;;;;;19.60;8.90;;;9.00;99.90;;;;;;4930416;29;20561;-68
2022/10/23 00:37:29;;;;;;;33.20;24.55;;;8.90;99.90;;;;;;4930608;29;20051;-68
2022/10/23 00:39:55;;;;;;;20.58;8.15;;;8.90;99.90;;;;;;4930826;29;20095;-68
2022/10/23 00:42:22;;;;;;;18.27;10.52;;;8.90;99.90;;;;;;4931517;29;20061;-68
2022/10/23 00:44:48;;;;;;;37.80;26.48;;;8.90;99.90;;;;;;4930569;29;20058;-68
2022/10/23 00:47:13;;;;;;;35.03;24.80;;;8.90;99.90;;;;;;4930848;28;20039;-68
2022/10/23 00:49:39;;;;;;;37.72;27.75;;;8.90;99.90;;;;;;4945958;28;20047;-68
2022/10/23 00:52:07;;;;;;;15.10;8.90;;;8.90;99.90;;;;;;4931542;29;20520;-68
2022/10/23 00:54:36;;;;;;;15.68;8.48;;;8.90;99.90;;;;;;4930165;29;20047;-68
2022/10/23 00:57:06;;;;;;;18.13;9.23;;;8.90;99.90;;;;;;4930852;29;20039;-68
2022/10/23 00:59:32;;;;;;;38.33;25.35;;;8.80;99.90;;;;;;4930888;29;20051;-68
2022/10/23 01:01:58;;;;;;;36.25;25.90;;;8.80;99.90;;;;;;4931260;29;20036;-68
2022/10/23 01:04:26;;;;;;;16.98;9.13;;;8.90;99.90;;;;;;4931328;29;20054;-68
2022/10/23 01:07:30;;;;;;;35.55;25.80;;;8.80;99.90;;;;;;4929913;29;20410;-68
2022/10/23 01:10:08;;;;;;;29.42;24.40;;;8.80;99.90;;;;;;4929526;29;20056;-68
2022/10/23 01:13:06;;;;;;;46.47;25.48;;;8.90;99.90;;;;;;4931070;29;20052;-69
2022/10/23 01:15:51;;;;;;;23.42;10.52;;;8.80;99.90;;;;;;4921834;29;20082;-68
2022/10/23 01:18:30;;;;;;;17.05;7.72;;;8.80;99.90;;;;;;4932316;28;20058;-68
2022/10/23 01:21:13;;;;;;;12.45;6.57;;;8.90;99.90;;;;;;4931123;29;20083;-68
2022/10/23 01:23:47;;;;;;;25.02;22.35;;;8.70;99.90;;;;;;4930871;29;20048;-68
2022/10/23 01:26:44;;;;;;;15.27;7.68;;;8.70;99.90;;;;;;4928229;29;20160;-69
2022/10/23 01:29:34;;;;;;;14.05;8.23;;;8.70;99.90;;;;;;4928848;29;20063;-69
2022/10/23 01:32:11;;;;;;;14.60;7.40;;;8.60;99.90;;;;;;4929387;29;20396;-68
2022/10/23 01:34:51;;;;;;;13.43;8.57;;;8.50;99.90;;;;;;4930007;29;20052;-68
2022/10/23 01:37:24;;;;;;;24.80;21.80;;;8.50;99.90;;;;;;4923627;29;20485;-68
2022/10/23 01:39:54;;;;;;;24.70;20.50;;;8.60;99.90;;;;;;4930077;29;20047;-68
2022/10/23 01:42:35;;;;;;;27.73;24.50;;;8.60;99.90;;;;;;4929203;29;20054;-68
2022/10/23 01:45:12;;;;;;;13.55;7.43;;;8.60;99.90;;;;;;4929054;29;20075;-68
2022/10/23 01:47:39;;;;;;;13.68;7.72;;;8.50;99.90;;;;;;4930303;29;20051;-68
2022/10/23 01:50:06;;;;;;;27.00;23.20;;;8.50;99.90;;;;;;4930863;29;20052;-68
2022/10/23 01:52:32;;;;;;;34.10;23.83;;;8.50;99.90;;;;;;4929964;29;20484;-68
2022/10/23 01:55:00;;;;;;;27.42;22.00;;;8.50;99.90;;;;;;4929860;29;20130;-69
2022/10/23 01:57:29;;;;;;;29.42;22.52;;;8.60;99.90;;;;;;4929124;29;20118;-68
2022/10/23 02:00:04;;;;;;;27.83;21.58;;;8.60;99.90;;;;;;4930532;29;20738;-68
2022/10/23 02:02:32;;;;;;;28.92;23.13;;;8.60;99.90;;;;;;4945190;29;20044;-69
2022/10/23 02:05:09;;;;;;;37.35;26.40;;;8.60;99.90;;;;;;4923895;29;20044;-68
2022/10/23 02:07:35;;;;;;;41.60;26.10;;;8.70;99.90;;;;;;4929729;29;20050;-68
2022/10/23 02:10:05;;;;;;;37.65;13.13;;;8.70;99.90;;;;;;4930621;29;20867;-69
2022/10/23 02:12:34;;;;;;;35.40;26.58;;;8.60;99.90;;;;;;4929440;29;20067;-69
2022/10/23 02:15:08;;;;;;;39.85;28.50;;;8.70;99.90;;;;;;4929410;29;20115;-69
2022/10/23 02:18:02;;;;;;;43.25;28.85;;;8.80;99.90;;;;;;4930866;29;20081;-69
2022/10/23 02:20:35;;;;;;;20.83;9.77;;;8.80;99.90;;;;;;4934285;29;20049;-69
2022/10/23 02:23:21;;;;;;;19.85;9.27;;;8.80;99.90;;;;;;4934075;29;20089;-69
2022/10/23 02:26:04;;;;;;;46.63;32.85;;;8.90;99.90;;;;;;4933819;29;20523;-69
2022/10/23 02:28:41;;;;;;;59.22;35.08;;;9.10;99.90;;;;;;4931195;29;20051;-69
2022/10/23 02:31:11;;;;;;;55.08;38.67;;;9.00;99.90;;;;;;4931144;29;20082;-68
2022/10/23 02:33:37;;;;;;;48.22;34.88;;;9.10;99.90;;;;;;4920839;29;20052;-68
2022/10/23 02:36:03;;;;;;;53.00;33.40;;;9.10;99.90;;;;;;4932610;29;20751;-69
2022/10/23 02:38:40;;;;;;;56.17;34.75;;;9.10;99.90;;;;;;4934097;29;20044;-68
2022/10/23 02:41:30;;;;;;;53.30;34.17;;;9.20;99.90;;;;;;4933865;29;20102;-69
2022/10/23 02:44:11;;;;;;;52.88;34.42;;;9.20;99.90;;;;;;4948748;28;20051;-68
2022/10/23 02:46:52;;;;;;;54.72;35.80;;;9.20;99.90;;;;;;4931916;29;20163;-69
2022/10/23 02:49:53;;;;;;;68.47;41.53;;;9.30;99.90;;;;;;4932109;29;20127;-68
2022/10/23 02:52:27;;;;;;;51.92;33.58;;;9.30;99.90;;;;;;4913598;29;20062;-69
2022/10/23 02:55:18;;;;;;;72.13;38.67;;;9.30;99.90;;;;;;4921784;29;20075;-68
2022/10/23 02:57:53;;;;;;;60.00;35.92;;;9.40;99.90;;;;;;4933058;29;20082;-69
2022/10/23 03:00:20;;;;;;;55.08;37.20;;;9.30;99.90;;;;;;4933048;29;20048;-68
2022/10/23 03:02:59;;;;;;;50.45;33.97;;;9.30;99.90;;;;;;4933063;29;20055;-69
2022/10/23 03:05:32;;;;;;;52.03;33.15;;;9.30;99.90;;;;;;4932855;29;20052;-68
2022/10/23 03:07:58;;;;;;;28.55;17.92;;;9.30;99.90;;;;;;4931771;29;20111;-69
2022/10/23 03:10:23;;;;;;;46.80;33.95;;;9.30;99.90;;;;;;4932026;29;20039;-68
2022/10/23 03:12:49;;;;;;;52.80;34.17;;;9.30;99.90;;;;;;4932546;29;20052;-68
2022/10/23 03:15:16;;;;;;;49.38;33.85;;;9.30;99.90;;;;;;4931819;29;20046;-69
2022/10/23 03:17:41;;;;;;;44.25;32.22;;;9.20;99.90;;;;;;4933326;29;20441;-69
2022/10/23 03:20:08;;;;;;;83.28;42.78;;;9.30;99.90;;;;;;4933354;29;20036;-69
2022/10/23 03:22:33;;;;;;;67.53;41.03;;;9.30;99.90;;;;;;4931860;29;20052;-69
2022/10/23 03:24:59;;;;;;;58.08;36.38;;;9.30;99.90;;;;;;4932205;29;20047;-68
2022/10/23 03:27:25;;;;;;;53.50;35.08;;;9.30;99.90;;;;;;4932934;29;20044;-69
2022/10/23 03:29:50;;;;;;;42.25;30.63;;;9.40;99.90;;;;;;4932129;29;20405;-68
2022/10/23 03:32:16;;;;;;;40.58;28.83;;;9.30;99.90;;;;;;4932391;29;20134;-68
2022/10/23 03:34:42;;;;;;;36.45;27.25;;;9.30;99.90;;;;;;4931205;29;20390;-69
2022/10/23 03:37:07;;;;;;;37.83;28.80;;;9.30;99.90;;;;;;4930718;29;20491;-68
2022/10/23 03:39:33;;;;;;;34.17;26.65;;;9.20;99.90;;;;;;4932493;29;20524;-69
2022/10/23 03:41:59;;;;;;;32.33;25.23;;;9.20;99.90;;;;;;4932348;29;20925;-68
2022/10/23 03:44:24;;;;;;;39.03;28.05;;;9.20;99.90;;;;;;4932825;29;20119;-69
2022/10/23 03:46:50;;;;;;;32.38;24.98;;;9.20;99.90;;;;;;4932004;29;20044;-68
2022/10/23 03:49:16;;;;;;;32.00;25.00;;;9.10;99.90;;;;;;4932100;29;20526;-68
2022/10/23 03:51:42;;;;;;;50.25;26.80;;;9.10;99.90;;;;;;4932461;29;20409;-69
2022/10/23 03:54:09;;;;;;;34.33;25.27;;;9.10;99.90;;;;;;4931829;29;20051;-69
2022/10/23 03:56:34;;;;;;;34.00;25.15;;;9.00;99.90;;;;;;4932119;29;20050;-69
2022/10/23 03:59:00;;;;;;;36.75;24.77;;;9.10;99.90;;;;;;4931911;29;20044;-69
2022/10/23 04:01:26;;;;;;;33.88;25.05;;;9.00;99.90;;;;;;4932327;29;20445;-68
2022/10/23 04:03:51;;;;;;;32.17;24.80;;;9.00;99.90;;;;;;4931018;29;20090;-69
2022/10/23 04:06:17;;;;;;;16.48;10.77;;;9.10;99.90;;;;;;4930530;29;20524;-69
2022/10/23 04:08:43;;;;;;;14.73;9.13;;;9.00;99.90;;;;;;4931707;29;20048;-69
2022/10/23 04:11:10;;;;;;;18.08;7.03;;;9.00;99.90;;;;;;4931134;29;20063;-69
2022/10/23 04:13:35;;;;;;;31.13;22.63;;;8.90;99.90;;;;;;4931988;29;20127;-69
2022/10/23 04:16:01;;;;;;;25.50;21.60;;;8.90;99.90;;;;;;4947011;29;20215;-69
2022/10/23 04:18:27;;;;;;;11.25;8.13;;;8.90;99.90;;;;;;4934519;29;20044;-69
2022/10/23 04:20:53;;;;;;;12.65;8.32;;;8.80;99.90;;;;;;4931808;29;20079;-69
2022/10/23 04:23:20;;;;;;;11.68;7.00;;;8.80;99.90;;;;;;4932050;29;20134;-69
2022/10/23 04:25:47;;;;;;;25.70;21.42;;;8.80;99.90;;;;;;4931990;29;20083;-69
2022/10/23 04:28:12;;;;;;;19.70;7.88;;;8.80;99.90;;;;;;4937164;29;20870;-69
2022/10/23 04:30:38;;;;;;;24.45;19.63;;;8.70;99.90;;;;;;4930150;29;20044;-69
2022/10/23 04:33:03;;;;;;;22.30;19.08;;;8.70;99.90;;;;;;4931184;29;20047;-68
2022/10/23 04:35:29;;;;;;;10.98;7.57;;;8.70;99.90;;;;;;4931712;29;20039;-69
2022/10/23 04:37:55;;;;;;;22.50;19.20;;;8.70;99.90;;;;;;4930690;29;20843;-68
2022/10/23 04:40:20;;;;;;;10.77;7.68;;;8.70;99.90;;;;;;4931705;29;20123;-68
2022/10/23 04:42:46;;;;;;;10.93;8.57;;;8.60;99.90;;;;;;4931027;29;20040;-69
2022/10/23 04:45:12;;;;;;;24.65;20.38;;;8.60;99.90;;;;;;4931707;29;20044;-69
2022/10/23 04:47:37;;;;;;;9.45;6.72;;;8.60;99.90;;;;;;4929396;29;20050;-69
2022/10/23 04:50:03;;;;;;;14.30;7.40;;;8.60;99.90;;;;;;4930798;29;20138;-69
2022/10/23 04:52:29;;;;;;;27.48;19.83;;;8.50;99.90;;;;;;4930213;29;20091;-69
2022/10/23 04:54:55;;;;;;;21.55;19.27;;;8.50;99.90;;;;;;4931441;29;20063;-69
2022/10/23 04:57:20;;;;;;;19.80;17.42;;;8.50;99.90;;;;;;4929919;29;20055;-68
2022/10/23 04:59:46;;;;;;;23.27;18.27;;;8.50;99.90;;;;;;4930600;29;20441;-69
2022/10/23 05:02:11;;;;;;;22.58;19.27;;;8.50;99.90;;;;;;4931527;29;20102;-69
2022/10/23 05:04:37;;;;;;;27.65;22.13;;;8.50;99.90;;;;;;4929637;29;20043;-69
2022/10/23 05:07:03;;;;;;;35.03;23.75;;;8.50;99.90;;;;;;4930936;29;20497;-69
2022/10/23 05:09:28;;;;;;;39.30;25.70;;;8.50;99.90;;;;;;4931030;29;20055;-68
2022/10/23 05:11:54;;;;;;;40.63;26.73;;;8.60;99.90;;;;;;4930879;29;20054;-69
2022/10/23 05:14:19;;;;;;;26.08;11.00;;;8.60;99.90;;;;;;4931082;29;20094;-69
2022/10/23 05:16:47;;;;;;;18.88;9.20;;;8.50;99.90;;;;;;4930576;29;20078;-69
2022/10/23 05:19:19;;;;;;;39.75;21.70;;;8.50;99.90;;;;;;4947145;28;20055;-69
2022/10/23 05:21:47;;;;;;;21.88;19.17;;;8.40;99.90;;;;;;4930345;29;20047;-69
2022/10/23 05:24:13;;;;;;;37.58;8.88;;;8.40;99.90;;;;;;4930299;29;20623;-69
2022/10/23 05:26:38;;;;;;;28.77;21.48;;;8.40;99.90;;;;;;4930491;29;20134;-69
2022/10/23 05:29:04;;;;;;;139.45;27.85;;;8.30;99.90;;;;;;4935210;29;20185;-69
2022/10/23 05:31:32;;;;;;;120.00;30.20;;;8.40;99.90;;;;;;4929944;29;20085;-69
2022/10/23 05:33:59;;;;;;;153.73;34.53;;;8.30;99.90;;;;;;4927652;29;20044;-69
2022/10/23 05:36:26;;;;;;;20.05;10.68;;;8.30;99.90;;;;;;4928185;29;20035;-69
2022/10/23 05:38:52;;;;;;;18.50;8.45;;;8.30;99.90;;;;;;4928317;29;20052;-69
2022/10/23 05:41:18;;;;;;;36.35;24.27;;;8.20;99.90;;;;;;4930192;29;20055;-69
2022/10/23 05:43:45;;;;;;;35.40;10.85;;;8.20;99.90;;;;;;4929429;29;20046;-70
2022/10/23 05:46:11;;;;;;;11.77;7.18;;;8.40;99.90;;;;;;4912723;29;20048;-69
2022/10/23 05:48:37;;;;;;;11.55;6.43;;;8.20;99.90;;;;;;4929206;29;20055;-69
2022/10/23 05:51:07;;;;;;;39.92;23.05;;;8.10;99.90;;;;;;4930122;29;20119;-69
2022/10/23 05:53:33;;;;;;;33.90;21.55;;;8.10;99.90;;;;;;4927756;29;20352;-69
2022/10/23 05:56:06;;;;;;;36.10;24.15;;;8.20;99.90;;;;;;4929972;29;20115;-69
2022/10/23 05:58:33;;;;;;;25.25;20.95;;;8.20;99.90;;;;;;4929560;29;20039;-69
2022/10/23 06:00:58;;;;;;;10.80;7.78;;;8.20;99.90;;;;;;4928428;29;20083;-69
2022/10/23 06:03:24;;;;;;;23.80;19.15;;;8.10;99.90;;;;;;4929222;29;20497;-68
2022/10/23 06:05:51;;;;;;;12.50;8.32;;;8.10;99.90;;;;;;4941807;28;20055;-68
2022/10/23 06:08:17;;;;;;;25.02;19.55;;;8.10;99.90;;;;;;4927627;29;20051;-68
2022/10/23 06:10:42;;;;;;;24.98;20.35;;;8.20;99.90;;;;;;4910692;29;20051;-69
2022/10/23 06:13:08;;;;;;;13.73;8.88;;;8.20;99.90;;;;;;4928673;29;20051;-69
2022/10/23 06:15:34;;;;;;;16.65;8.77;;;8.10;99.90;;;;;;4928442;29;20050;-68
2022/10/23 06:18:04;;;;;;;28.02;22.25;;;8.10;99.90;;;;;;4933576;29;20146;-68
2022/10/23 06:20:30;;;;;;;31.60;23.40;;;8.10;99.90;;;;;;4930601;29;20438;-69
2022/10/23 06:22:55;;;;;;;15.02;8.07;;;8.20;99.90;;;;;;4929495;29;20504;-68
2022/10/23 06:25:21;;;;;;;14.65;9.38;;;8.10;99.90;;;;;;4930189;29;20075;-69
2022/10/23 06:27:47;;;;;;;18.92;8.20;;;8.30;99.90;;;;;;4927728;29;20058;-69
2022/10/23 06:30:12;;;;;;;47.75;28.77;;;8.20;99.90;;;;;;4927024;29;20123;-69
2022/10/23 06:32:38;;;;;;;20.10;9.55;;;8.20;99.90;;;;;;4929200;29;20083;-69
2022/10/23 06:35:04;;;;;;;45.22;28.63;;;8.20;99.90;;;;;;4928213;29;20054;-69
2022/10/23 06:37:33;;;;;;;31.88;10.00;;;8.20;99.90;;;;;;4928286;29;20074;-69
2022/10/23 06:39:58;;;;;;;20.42;9.35;;;8.30;99.90;;;;;;4929946;29;20052;-69
2022/10/23 06:42:24;;;;;;;14.73;7.32;;;8.10;99.90;;;;;;4944997;29;20557;-69
2022/10/23 06:44:50;;;;;;;43.75;24.75;;;8.10;99.90;;;;;;4928748;29;20048;-69
2022/10/23 06:47:15;;;;;;;39.47;25.55;;;8.20;99.90;;;;;;4939368;29;20051;-69
2022/10/23 06:49:41;;;;;;;79.82;30.42;;;8.30;99.90;;;;;;4929829;29;20819;-69
2022/10/23 06:52:07;;;;;;;28.70;9.65;;;8.20;99.90;;;;;;4930029;29;20040;-69
2022/10/23 06:54:33;;;;;;;49.22;31.75;;;8.20;99.90;;;;;;4928518;29;20162;-69
2022/10/23 06:56:58;;;;;;;84.85;41.75;;;8.30;99.90;;;;;;4930166;29;20048;-69
2022/10/23 06:59:24;;;;;;;20.30;10.55;;;8.40;99.90;;;;;;4928124;29;20047;-69
2022/10/23 07:01:49;;;;;;;22.75;12.40;;;8.40;99.90;;;;;;4932701;29;20404;-69
2022/10/23 07:04:16;;;;;;;75.03;41.00;;;8.50;99.90;;;;;;4948281;28;20048;-69
2022/10/23 07:06:42;;;;;;;69.55;40.53;;;8.60;99.90;;;;;;4913172;29;20091;-69
2022/10/23 07:09:08;;;;;;;24.70;12.25;;;8.70;99.90;;;;;;4931841;29;20051;-69
2022/10/23 07:11:33;;;;;;;106.63;49.10;;;8.60;99.90;;;;;;4929618;29;20075;-69
2022/10/23 07:13:59;;;;;;;77.53;44.00;;;8.70;99.90;;;;;;4947353;29;20575;-69
2022/10/23 07:16:25;;;;;;;90.90;46.95;;;8.80;99.90;;;;;;4932068;29;20130;-69
2022/10/23 07:18:59;;;;;;;81.68;44.42;;;8.90;99.90;;;;;;4932340;29;20408;-69
2022/10/23 07:21:33;;;;;;;28.83;12.43;;;8.90;99.90;;;;;;4930766;29;20036;-69
2022/10/23 07:24:00;;;;;;;97.53;50.95;;;9.00;99.90;;;;;;4930563;29;20067;-69
2022/10/23 07:26:25;;;;;;;26.63;15.35;;;9.10;99.90;;;;;;4929656;29;20074;-69
2022/10/23 07:28:54;;;;;;;88.95;46.63;;;9.20;99.90;;;;;;4932392;29;20059;-69
2022/10/23 07:31:24;;;;;;;95.97;50.33;;;9.40;99.90;;;;;;4932291;29;20915;-69
2022/10/23 07:33:51;;;;;;;25.67;15.82;;;9.20;99.90;;;;;;4932398;29;20040;-69
2022/10/23 07:36:18;;;;;;;83.20;47.55;;;9.20;99.90;;;;;;4931784;29;20059;-69
2022/10/23 07:38:44;;;;;;;28.60;15.63;;;9.30;99.90;;;;;;4923919;29;20063;-69
2022/10/23 07:41:10;;;;;;;100.07;50.92;;;9.30;99.90;;;;;;4931655;29;20126;-69
2022/10/23 07:43:36;;;;;;;102.20;50.67;;;9.30;99.90;;;;;;4932505;29;20044;-69
2022/10/23 07:46:02;;;;;;;84.70;48.20;;;9.40;99.90;;;;;;4932164;29;20059;-69
2022/10/23 07:48:28;;;;;;;91.05;48.63;;;9.40;99.90;;;;;;4932506;29;20059;-69
2022/10/23 07:50:59;;;;;;;92.15;49.33;;;9.50;99.90;;;;;;4932068;29;20179;-69
2022/10/23 07:53:26;;;;;;;93.35;47.45;;;9.50;99.90;;;;;;4930397;29;20054;-69
2022/10/23 07:56:03;;;;;;;83.70;46.65;;;9.70;99.90;;;;;;4931440;29;20063;-69
2022/10/23 07:58:29;;;;;;;77.05;43.47;;;9.70;99.90;;;;;;4930689;29;20094;-69
2022/10/23 08:01:01;;;;;;;30.13;14.15;;;9.70;99.90;;;;;;4926221;29;20707;-69
2022/10/23 08:03:30;;;;;;;30.83;13.02;;;9.80;99.90;;;;;;4928487;29;20035;-69
2022/10/23 08:05:56;;;;;;;81.72;44.50;;;9.90;99.90;;;;;;4930561;29;20054;-69
2022/10/23 08:08:23;;;;;;;31.55;15.13;;;9.90;99.90;;;;;;4945380;28;20485;-69
2022/10/23 08:10:51;;;;;;;86.70;43.67;;;10.00;99.90;;;;;;4931683;29;20051;-69
2022/10/23 08:13:19;;;;;;;27.55;14.00;;;10.10;99.90;;;;;;4929502;29;20135;-69
2022/10/23 08:15:46;;;;;;;19.38;11.43;;;10.20;99.90;;;;;;4931467;29;20095;-69
2022/10/23 08:18:12;;;;;;;78.60;41.10;;;10.20;99.90;;;;;;4934605;29;20552;-69
2022/10/23 08:20:42;;;;;;;33.95;14.80;;;10.30;99.90;;;;;;4929130;29;20051;-70
2022/10/23 08:23:11;;;;;;;74.93;41.60;;;10.50;99.90;;;;;;4931604;29;20054;-69
2022/10/23 08:25:37;;;;;;;;;;;10.50;99.90;;;;;;4931996;29;20095;-69
2022/10/23 08:28:02;;;;;;;75.40;41.40;;;10.70;99.90;;;;;;4931433;29;19930;-70
2022/10/23 08:30:28;;;;;;;88.70;44.00;;;10.70;99.90;;;;;;4945722;29;20066;-70
2022/10/23 08:32:54;;;;;;;82.05;41.53;;;10.70;99.90;;;;;;4945856;29;20062;-69
2022/10/23 08:35:20;;;;;;;69.47;43.17;;;10.80;99.90;;;;;;4946241;29;20047;-70
2022/10/23 08:37:45;;;;;;;90.05;43.47;;;10.90;99.90;;;;;;4931242;29;20107;-70
2022/10/23 08:40:22;;;;;;;72.22;42.03;;;11.00;99.90;;;;;;4930514;29;20052;-69
2022/10/23 08:43:11;;;;;;;74.63;41.88;;;11.10;99.90;;;;;;4926477;29;20052;-69
2022/10/23 08:45:55;;;;;;;72.70;40.47;;;11.30;99.90;;;;;;4888195;29;20555;-70
2022/10/23 08:48:39;;;;;;;64.18;38.55;;;11.30;99.90;;;;;;4930183;29;20130;-70
2022/10/23 08:51:11;;;;;;;84.25;42.63;;;11.50;99.90;;;;;;4929888;28;20118;-70
2022/10/23 08:53:53;;;;;;;66.55;36.85;;;11.60;99.90;;;;;;4932983;29;20048;-69
2022/10/23 08:56:27;;;;;;;66.57;38.42;;;11.60;99.90;;;;;;4925056;29;20109;-70
2022/10/23 08:59:19;;;;;;;67.93;39.60;;;11.70;99.90;;;;;;4929991;29;20569;-69
2022/10/23 09:02:11;;;;;;;65.65;37.53;;;11.80;99.90;;;;;;4929728;29;20449;-69
2022/10/23 09:04:38;;;;;;;69.18;34.92;;;11.80;99.90;;;;;;4944447;28;20047;-70
2022/10/23 09:07:19;;;;;;;71.15;38.50;;;11.90;99.90;;;;;;4945423;29;20055;-70
2022/10/23 09:10:21;;;;;;;51.58;36.15;;;12.00;99.90;;;;;;4930472;29;20519;-69
2022/10/23 09:12:47;;;;;;;54.97;35.47;;;12.10;99.90;;;;;;4929143;29;20055;-69
2022/10/23 09:15:30;;;;;;;57.50;34.95;;;12.20;99.90;;;;;;4935244;29;20053;-69
2022/10/23 09:18:05;;;;;;;59.13;35.70;;;12.30;99.90;;;;;;4926705;29;20059;-69
2022/10/23 09:20:33;;;;;;;64.78;35.42;;;12.50;99.90;;;;;;4930309;29;20039;-69
2022/10/23 09:23:20;;;;;;;48.58;32.33;;;12.40;99.90;;;;;;4930534;29;20099;-69
2022/10/23 09:25:47;;;;;;;52.25;31.23;;;12.50;99.90;;;;;;4930521;29;20054;-69
2022/10/23 09:28:26;;;;;;;55.78;32.88;;;12.60;99.90;;;;;;4921108;29;20083;-70
2022/10/23 09:30:52;;;;;;;58.42;35.45;;;12.70;99.90;;;;;;4944621;28;20048;-69
2022/10/23 09:33:24;;;;;;;64.63;30.80;;;12.80;99.90;;;;;;4930721;29;20081;-69
2022/10/23 09:36:12;;;;;;;49.38;30.60;;;12.80;99.90;;;;;;4929144;29;20052;-70
2022/10/23 09:38:48;;;;;;;46.72;28.10;;;12.90;99.90;;;;;;4945006;29;20070;-70
2022/10/23 09:41:21;;;;;;;44.00;28.10;;;13.00;99.90;;;;;;4917949;29;20054;-69
2022/10/23 09:43:57;;;;;;;42.70;27.80;;;13.10;99.90;;;;;;4927654;29;20083;-70
2022/10/23 09:46:23;;;;;;;44.30;26.98;;;13.20;99.90;;;;;;4928346;29;20457;-69
2022/10/23 09:48:56;;;;;;;47.47;26.98;;;13.30;99.90;;;;;;4930217;29;20089;-70
2022/10/23 09:51:22;;;;;;;56.38;25.42;;;13.40;99.90;;;;;;4913630;29;20039;-69
2022/10/23 09:53:59;;;;;;;51.65;27.33;;;13.40;99.90;;;;;;4944225;29;20417;-70
2022/10/23 09:56:30;;;;;;;54.97;26.98;;;13.70;99.90;;;;;;4924410;29;20511;-69
2022/10/23 09:59:03;;;;;;;39.38;24.58;;;13.70;99.90;;;;;;4923162;29;20052;-69
2022/10/23 10:01:44;;;;;;;40.58;24.05;;;13.70;99.90;;;;;;4924831;29;20046;-70
2022/10/23 10:04:09;;;;;;;33.63;22.98;;;13.70;99.90;;;;;;4930423;29;20039;-69
2022/10/23 10:06:35;;;;;;;38.22;23.70;;;13.80;99.90;;;;;;4930082;29;20048;-69
2022/10/23 10:09:13;;;;;;;37.28;23.05;;;13.90;99.90;;;;;;4931861;29;20408;-69
2022/10/23 10:11:51;;;;;;;37.28;22.40;;;14.00;99.90;;;;;;4921755;29;20050;-70
2022/10/23 10:14:29;;;;;;;37.25;21.48;;;14.00;99.90;;;;;;4926727;29;20036;-69
2022/10/23 10:16:58;;;;;;;;;;;14.10;99.90;;;;;;4935663;29;20043;-69
2022/10/23 10:19:38;;;;;;;38.83;21.38;;;14.10;99.90;;;;;;4923692;29;19930;-69
2022/10/23 10:22:22;;;;;;;35.60;22.58;;;14.30;99.90;;;;;;4930465;29;20050;-69
2022/10/23 10:25:16;;;;;;;39.40;22.05;;;14.30;99.90;;;;;;4928814;29;20051;-69
2022/10/23 10:27:47;;;;;;;32.58;21.02;;;14.40;99.90;;;;;;4928114;29;20501;-69
2022/10/23 10:30:22;;;;;;;37.38;24.27;;;14.90;99.90;;;;;;4943590;29;20394;-69
2022/10/23 10:33:03;;;;;;;39.70;20.30;;;14.50;99.90;;;;;;4929772;29;20047;-69
2022/10/23 10:36:06;;;;;;;34.28;20.30;;;14.50;99.90;;;;;;4930484;29;20063;-69
2022/10/23 10:38:52;;;;;;;35.92;21.58;;;14.60;99.90;;;;;;4930292;29;20044;-69
2022/10/23 10:41:39;;;;;;;34.75;21.75;;;14.80;99.90;;;;;;4921838;29;20063;-69
2022/10/23 10:44:30;;;;;;;38.72;19.90;;;14.90;99.90;;;;;;4933914;29;20110;-69
2022/10/23 10:47:04;;;;;;;30.90;19.23;;;15.00;99.90;;;;;;4932457;29;20496;-69
2022/10/23 10:49:45;;;;;;;28.70;18.85;;;14.90;99.90;;;;;;4931353;29;20058;-69
2022/10/23 10:52:29;;;;;;;33.35;19.40;;;15.00;99.90;;;;;;4933732;29;20047;-69
2022/10/23 10:55:13;;;;;;;31.00;18.70;;;15.00;99.90;;;;;;4932328;29;20103;-69
2022/10/23 10:57:42;;;;;;;27.90;17.02;;;15.10;99.90;;;;;;4933466;29;20430;-69
2022/10/23 11:00:20;;;;;;;25.73;17.67;;;15.10;99.90;;;;;;4933751;29;20052;-69
2022/10/23 11:02:58;;;;;;;33.30;17.85;;;15.20;99.90;;;;;;4933545;29;20074;-68
2022/10/23 11:05:31;;;;;;;31.70;16.17;;;15.20;99.90;;;;;;4931714;29;20114;-69
2022/10/23 11:08:10;;;;;;;31.90;17.58;;;15.20;99.90;;;;;;4932677;29;20048;-68
2022/10/23 11:10:40;;;;;;;30.98;16.80;;;15.30;99.90;;;;;;4929008;29;20574;-69
2022/10/23 11:13:32;;;;;;;22.40;14.82;;;15.20;99.90;;;;;;4933302;29;20102;-68
2022/10/23 11:16:12;;;;;;;26.80;17.33;;;15.20;99.90;;;;;;4930728;29;20162;-68
2022/10/23 11:18:42;;;;;;;26.13;15.93;;;15.20;99.90;;;;;;4931218;29;20051;-68
2022/10/23 11:21:20;;;;;;;33.17;16.63;;;15.20;99.90;;;;;;4932814;29;20134;-69
2022/10/23 11:23:59;;;;;;;28.88;17.58;;;15.30;99.90;;;;;;4946621;28;20048;-68
2022/10/23 11:27:04;;;;;;;22.75;16.42;;;15.30;99.90;;;;;;4927804;29;20088;-68
2022/10/23 11:29:47;;;;;;;32.88;16.80;;;15.20;99.90;;;;;;4915892;29;20071;-69
2022/10/23 11:33:01;;;;;;;25.38;14.40;;;15.20;99.90;;;;;;4930704;29;20048;-68
2022/10/23 11:35:48;;;;;;;28.73;14.80;;;15.20;99.90;;;;;;4912651;29;20048;-68
2022/10/23 11:38:45;;;;;;;24.23;15.77;;;15.20;99.90;;;;;;4931441;29;20113;-68
2022/10/23 11:41:32;;;;;;;29.05;15.35;;;15.30;99.90;;;;;;4920271;29;20854;-69
2022/10/23 11:44:02;;;;;;;21.85;13.95;;;15.20;99.90;;;;;;4931530;29;20128;-68
2022/10/23 11:46:37;;;;;;;21.88;13.63;;;15.20;99.90;;;;;;4921680;29;20076;-68
2022/10/23 11:49:18;;;;;;;24.75;15.88;;;15.20;99.90;;;;;;4929900;29;20067;-68
2022/10/23 11:51:43;;;;;;;34.88;15.57;;;15.20;99.90;;;;;;4930737;29;20456;-68
2022/10/23 11:54:09;;;;;;;32.65;15.25;;;15.10;99.90;;;;;;4932007;29;20052;-68
2022/10/23 11:56:36;;;;;;;41.35;14.00;;;15.10;99.90;;;;;;4930180;29;20062;-69
2022/10/23 11:59:20;;;;;;;21.63;13.33;;;15.10;99.90;;;;;;4946434;28;20513;-68
2022/10/23 12:01:48;;;;;;;37.55;14.18;;;15.20;99.90;;;;;;4932219;29;20151;-68
2022/10/23 12:04:14;;;;;;;27.15;14.77;;;15.60;99.90;;;;;;4932618;29;20056;-68
2022/10/23 12:06:58;;;;;;;22.92;15.40;;;15.20;99.90;;;;;;4931735;29;20572;-68
2022/10/23 12:09:24;;;;;;;23.95;13.25;;;15.20;99.90;;;;;;4930394;29;20055;-68
2022/10/23 12:12:08;;;;;;;24.73;15.45;;;15.20;99.90;;;;;;4931674;29;20054;-68
2022/10/23 12:14:39;;;;;;;33.60;15.15;;;15.30;99.90;;;;;;4931199;29;20830;-68
2022/10/23 12:17:23;;;;;;;22.65;15.18;;;15.20;99.90;;;;;;4928302;29;20079;-68
2022/10/23 12:19:52;;;;;;;23.35;12.90;;;15.30;99.90;;;;;;4945839;28;20055;-68
2022/10/23 12:22:19;;;;;;;23.35;13.57;;;15.30;99.90;;;;;;4931771;29;20496;-68
2022/10/23 12:25:07;;;;;;;19.60;13.05;;;15.40;99.90;;;;;;4946648;29;20479;-69
2022/10/23 12:27:48;;;;;;;30.90;14.27;;;15.40;99.90;;;;;;4929642;29;20043;-68
2022/10/23 12:30:20;;;;;;;25.48;14.38;;;15.40;99.90;;;;;;4929509;29;20215;-68
2022/10/23 12:33:07;;;;;;;19.08;11.77;;;15.40;99.90;;;;;;4937591;29;20047;-68
2022/10/23 12:35:51;;;;;;;23.88;14.25;;;15.50;99.90;;;;;;4930931;29;20036;-68
2022/10/23 12:38:23;;;;;;;19.48;13.52;;;15.50;99.90;;;;;;4930894;29;20116;-68
2022/10/23 12:40:55;;;;;;;22.88;13.57;;;15.50;99.90;;;;;;4938282;29;20040;-68
2022/10/23 12:43:31;;;;;;;16.52;11.23;;;15.70;99.90;;;;;;4929672;29;20430;-69
2022/10/23 12:46:16;;;;;;;21.48;10.82;;;15.70;99.90;;;;;;4926618;29;20079;-68
2022/10/23 12:48:50;;;;;;;22.65;12.23;;;15.70;99.90;;;;;;4926537;29;20044;-69
2022/10/23 12:51:23;;;;;;;28.02;12.30;;;15.60;99.90;;;;;;4925481;29;20131;-68
2022/10/23 12:53:49;;;;;;;20.80;13.52;;;15.70;99.90;;;;;;4943352;29;20134;-68
2022/10/23 12:56:15;;;;;;;21.35;12.57;;;15.80;99.90;;;;;;4930914;29;20059;-68
2022/10/23 12:58:59;;;;;;;20.05;12.00;;;15.70;99.90;;;;;;4927128;29;20051;-69